Latest Weather Observations for The Monument

IDQ60801

Issued at 4:32 pm EST Thursday 23 February 2017 (issued every 30 minutes, with the page automatically refreshed every 10 minutes)

About weather observations | Map of weather stations | Latest weather observations for QLD | Other Formats
Station Details ID: 037034 Name: THE MONUMENT AIRPORT Lat: -21.81 Lon: 139.93 Height: 288.4 m
Data from the previous 72 hours. | See also: Recent months at The Monument
Date/Time
EST
Temp
°C
App
Temp
°C
Dew
Point
°C
Rel
Hum
%
Delta-T
°C
Wind Press
QNH
hPa
Press
MSL
hPa
Rain since
9am
mm
Dir  Spd
km/h
Gust
km/h
Spd
kts
Gust
kts
23/04:00pm 29.9 32.0 21.0 59 6.0 NE 11 20 6 11 1013.3 1011.1 0.0
23/03:30pm 29.8 32.3 21.7 61 5.5 ENE 11 19 6 10 1013.7 1011.5 0.0
23/03:00pm 28.4 30.7 21.4 66 4.7 NE 11 17 6 9 1014.0 1011.8 0.0
23/02:30pm 28.1 30.0 22.1 70 4.1 NNE 15 20 8 11 1014.4 1012.2 0.0
23/02:00pm 29.7 30.7 21.1 60 5.8 NNE 17 26 9 14 1014.6 1012.4 0.0
23/01:30pm 28.8 29.1 20.8 62 5.4 NNE 20 28 11 15 1015.1 1012.9 0.0
23/01:00pm 29.9 30.3 20.7 57 6.2 NNE 19 30 10 16 1015.4 1013.2 0.0
23/12:30pm 30.5 30.8 20.7 55 6.6 NE 20 28 11 15 1015.4 1013.2 0.0
23/12:00pm 30.5 30.6 20.4 54 6.8 NE 20 30 11 16 1015.5 1013.3 0.0
23/11:30am 31.1 31.5 20.7 54 7.0 NE 19 32 10 17 1015.5 1013.3 0.0
23/11:00am 30.1 30.9 20.6 56 6.4 NE 17 24 9 13 1015.7 1013.5 0.0
23/10:30am 29.5 30.0 20.9 60 5.8 NE 19 26 10 14 1015.7 1013.5 0.0
23/10:00am 28.4 29.3 20.9 64 5.0 ENE 17 22 9 12 1015.7 1013.5 0.0
23/09:30am 27.3 27.8 20.9 68 4.3 NE 19 26 10 14 1015.9 1013.8 0.0
23/09:00am 26.4 26.3 20.7 71 3.8 NE 22 32 12 17 1015.6 1013.4 0.4
23/08:30am 26.0 26.3 20.8 73 3.5 NE 20 24 11 13 1015.5 1013.3 0.4
23/08:00am 25.3 26.2 20.8 76 3.0 NE 17 24 9 13 1015.3 1013.1 0.4
23/07:30am 24.9 26.6 21.0 79 2.6 NE 13 19 7 10 1014.9 1012.7 0.4
23/07:00am 24.5 26.2 21.0 81 2.3 NE 13 17 7 9 1014.7 1012.5 0.4
23/06:30am 24.3 26.9 21.2 83 2.1 NE 9 11 5 6 1014.3 1012.1 0.4
23/06:00am 24.2 26.9 21.3 84 1.9 ENE 9 11 5 6 1013.8 1011.6 0.4
23/05:30am 24.1 27.1 21.2 84 1.9 ENE 7 9 4 5 1013.6 1011.4 0.4
23/05:00am 24.1 26.5 20.8 82 2.2 ENE 9 11 5 6 1013.4 1011.2 0.4
23/04:30am 24.0 26.9 21.1 84 1.9 E 7 9 4 5 1013.2 1011.0 0.4
23/04:00am 23.9 26.7 20.8 83 2.0 E 7 7 4 4 1013.2 1011.0 0.4
23/03:30am 24.2 27.0 20.5 80 2.4 NE 6 9 3 5 1013.3 1011.1 0.4
23/03:00am 24.4 26.6 20.5 79 2.6 ENE 9 13 5 7 1013.3 1011.1 0.4
23/02:30am 24.5 26.8 20.6 79 2.6 ENE 9 13 5 7 1013.4 1011.2 0.4
23/02:00am 24.5 26.8 20.6 79 2.6 ENE 9 13 5 7 1013.9 1011.7 0.4
23/01:30am 24.6 26.1 20.5 78 2.7 E 13 15 7 8 1014.0 1011.8 0.4
23/01:00am 24.5 25.4 20.8 80 2.4 E 17 22 9 12 1014.5 1012.3 0.4
23/12:30am 24.6 25.2 21.1 81 2.3 E 19 26 10 14 1014.6 1012.4 0.2
23/12:00am 26.0 26.5 21.2 75 3.2 SE 20 30 11 16 1014.7 1012.5 0.0
 
Date/Time
EST
Temp
°C
App
Temp
°C
Dew
Point
°C
Rel
Hum
%
Delta-T
°C
Wind Press
QNH
hPa
Press
MSL
hPa
Rain since
9am
mm
Dir  Spd
km/h
Gust
km/h
Spd
kts
Gust
kts
22/11:30pm 26.5 28.0 21.3 73 3.5 E 15 19 8 10 1014.4 1012.2 0.0
22/11:00pm 26.8 27.9 21.3 72 3.7 E 17 22 9 12 1014.6 1012.4 0.0
22/10:30pm 26.4 28.4 21.6 75 3.2 ESE 13 19 7 10 1014.7 1012.5 0.0
22/10:00pm 26.0 28.2 21.9 78 2.8 ESE 13 17 7 9 1014.4 1012.2 0.0
22/09:30pm 26.1 28.6 21.7 77 3.0 ESE 11 15 6 8 1014.1 1011.9 0.0
22/09:00pm 25.8 28.6 21.5 77 2.9 ESE 9 15 5 8 1013.8 1011.6 0.0
22/08:30pm 25.8 28.6 21.5 77 2.9 ESE 9 13 5 7 1013.6 1011.4 0.0
22/08:00pm 26.0 27.6 21.4 76 3.1 SE 15 20 8 11 1013.3 1011.1 0.0
22/07:30pm 26.3 28.0 21.7 76 3.1 SSE 15 22 8 12 1013.1 1010.9 0.0
22/07:00pm 26.8 27.6 20.6 69 4.1 SE 17 24 9 13 1012.6 1010.4 0.0
22/06:30pm 27.5 30.3 20.8 67 4.5 S 7 9 4 5 1012.1 1009.9 0.0
22/06:00pm 27.3 28.5 20.6 67 4.5 S 15 17 8 9 1011.7 1009.5 0.0
22/05:30pm 27.9 28.1 20.5 64 4.9 SSE 20 28 11 15 1011.5 1009.3 0.0
22/05:00pm 29.1 30.3 19.1 54 6.6 ENE 11 20 6 11 1011.1 1008.9 0.0
22/04:30pm 31.6 31.6 18.9 47 8.4 NNE 17 28 9 15 1010.8 1008.6 0.0
22/04:00pm 32.5 33.1 18.7 44 9.1 N 13 19 7 10 1010.8 1008.6 0.0
22/03:30pm 32.0 32.2 19.3 47 8.4 NNE 17 28 9 15 1011.0 1008.8 0.0
22/03:00pm 31.6 31.5 19.6 49 8.0 NNE 19 28 10 15 1011.1 1008.9 0.0
22/02:30pm 31.9 32.1 20.2 50 7.8 NNE 19 26 10 14 1011.4 1009.2 0.0
22/02:00pm 30.6 31.3 19.6 51 7.3 NNE 15 30 8 16 1012.1 1009.9 0.0
22/01:30pm 30.9 30.8 19.9 52 7.3 NNE 20 32 11 17 1012.6 1010.4 0.0
22/01:00pm 29.3 29.6 19.6 56 6.4 NE 17 28 9 15 1013.1 1010.9 0.0
22/12:30pm 29.6 29.1 18.7 52 7.1 NNE 19 28 10 15 1013.5 1011.3 0.0
22/12:00pm 30.0 30.4 19.1 52 7.2 NE 15 22 8 12 1013.7 1011.5 0.0
22/11:30am 30.4 30.4 19.7 52 7.1 NE 19 28 10 15 1014.0 1011.8 0.0
22/11:00am 29.5 29.6 19.2 54 6.8 NNE 17 26 9 14 1014.2 1012.0 0.0
22/10:30am 29.9 29.7 19.3 53 7.0 NE 19 26 10 14 1014.3 1012.1 0.0
22/10:00am 28.3 27.4 19.0 57 6.1 NE 22 30 12 16 1014.3 1012.1 0.0
22/09:30am 27.9 27.9 18.9 58 5.9 NE 17 24 9 13 1014.4 1012.2 0.0
22/09:00am 27.0 26.5 18.6 60 5.4 NE 19 26 10 14 1014.2 1012.0 0.0
22/08:30am 26.8 26.1 18.6 60 5.3 NE 20 26 11 14 1014.1 1011.9 0.0
22/08:00am 25.6 24.4 18.3 64 4.7 ENE 22 32 12 17 1013.7 1011.5 0.0
22/07:30am 25.1 25.0 17.8 64 4.6 ENE 15 20 8 11 1013.5 1011.3 0.0
22/07:00am 24.7 24.9 17.7 65 4.4 ENE 13 19 7 10 1013.4 1011.2 0.0
22/06:30am 24.7 24.0 17.4 64 4.6 NE 17 22 9 12 1013.2 1011.0 0.0
22/06:00am 24.9 23.8 17.4 63 4.7 NE 19 26 10 14 1012.8 1010.7 0.0
22/05:30am 24.8 25.2 17.3 63 4.7 ENE 11 17 6 9 1012.8 1010.7 0.0
22/05:00am 24.9 25.0 17.4 63 4.7 NE 13 17 7 9 1012.5 1010.3 0.0
22/04:30am 24.9 25.5 17.6 64 4.6 NE 11 15 6 8 1012.1 1009.9 0.0
22/04:00am 25.0 25.2 17.7 64 4.6 NE 13 19 7 10 1011.9 1009.7 0.0
22/03:30am 25.1 25.5 18.1 65 4.5 NE 13 20 7 11 1011.8 1009.6 0.0
22/03:00am 25.3 24.4 18.2 64 4.5 NE 20 30 11 16 1011.8 1009.6 0.0
22/02:30am 25.5 24.9 18.4 65 4.6 NE 19 28 10 15 1011.9 1009.7 0.0
22/02:00am 25.9 25.2 18.3 63 4.9 NNE 19 32 10 17 1012.2 1010.0 0.0
22/01:30am 26.5 25.6 18.1 60 5.4 NNE 20 30 11 16 1012.3 1010.1 0.0
22/01:00am 26.9 27.5 16.8 54 6.4 NNE 9 13 5 7 1012.5 1010.3 0.0
22/12:30am 26.9 26.6 16.5 53 6.5 NNE 13 19 7 10 1012.6 1010.4 0.0
22/12:00am 27.1 27.3 16.7 53 6.5 NE 11 15 6 8 1012.8 1010.7 0.0
 
Date/Time
EST
Temp
°C
App
Temp
°C
Dew
Point
°C
Rel
Hum
%
Delta-T
°C
Wind Press
QNH
hPa
Press
MSL
hPa
Rain since
9am
mm
Dir  Spd
km/h
Gust
km/h
Spd
kts
Gust
kts
21/11:30pm 27.5 26.6 16.8 52 6.7 NNE 17 24 9 13 1013.3 1011.1 0.0
21/11:00pm 27.3 27.4 17.5 55 6.2 NNE 13 19 7 10 1013.5 1011.3 0.0
21/10:30pm 27.4 27.1 17.3 54 6.4 NE 15 22 8 12 1013.7 1011.5 0.0
21/10:00pm 27.4 26.3 17.3 54 6.4 NE 19 26 10 14 1013.5 1011.3 0.0
21/09:30pm 27.3 26.4 17.8 56 6.1 NNE 19 28 10 15 1012.7 1010.5 0.0
21/09:00pm 27.8 26.8 17.6 53 6.5 NNE 19 26 10 14 1012.3 1010.1 0.0
21/08:30pm 28.0 26.7 16.9 51 7.0 NNE 19 26 10 14 1012.1 1009.9 0.0
21/08:00pm 28.6 27.0 16.5 48 7.6 NNE 20 30 11 16 1011.8 1009.6 0.0
21/07:30pm 29.1 26.8 15.6 44 8.4 NNE 22 33 12 18 1011.5 1009.3 0.0
21/07:00pm 30.4 26.6 15.7 41 9.2 NNE 30 39 16 21 1011.1 1008.9 0.0
21/06:30pm 32.2 28.3 14.3 33 11.0 NNE 28 43 15 23 1010.7 1008.5 0.0
21/06:22pm 32.7 29.3 13.8 31 11.6 ENE 24 39 13 21 1010.5 1008.3 0.0
21/06:00pm 33.9 31.4 12.3 27 13.0 NE 17 26 9 14 1010.2 1008.0 0.0
21/05:30pm 34.7 32.0 11.8 25 13.7 E 17 28 9 15 1010.0 1007.8 0.0
21/05:00pm 34.7 32.0 11.8 25 13.8 NNE 17 22 9 12 1010.1 1007.9 0.0
21/04:30pm 35.2 32.1 11.6 24 14.2 ESE 19 28 10 15 1010.1 1007.9 0.0
21/04:00pm 36.2 34.1 12.4 24 14.5 E 15 30 8 16 1010.2 1008.0 0.0
21/03:30pm 36.1 33.8 11.7 23 14.7 E 15 26 8 14 1010.3 1008.1 0.0
21/03:00pm 35.5 32.3 11.2 23 14.5 ESE 19 30 10 16 1010.7 1008.5 0.0
21/02:30pm 35.4 34.4 11.1 23 14.5 ENE 7 17 4 9 1011.1 1008.9 0.0
21/02:00pm 35.6 32.4 11.3 23 14.5 NE 19 33 10 18 1011.6 1009.4 0.0
21/01:30pm 34.9 32.5 10.0 22 14.6 ENE 13 24 7 13 1011.8 1009.6 0.0
21/01:00pm 33.9 31.8 9.9 23 14.0 S 11 20 6 11 1012.3 1010.1 0.0
21/12:30pm 33.3 30.7 9.4 23 13.8 S 13 20 7 11 1012.9 1010.8 0.0
21/12:00pm 32.8 30.7 9.6 24 13.4 E 11 19 6 10 1013.5 1011.3 0.0
21/11:30am 31.5 29.6 9.1 25 12.7 S 9 17 5 9 1013.8 1011.6 0.0
21/11:00am 30.3 28.1 9.2 27 11.9 SSE 11 17 6 9 1014.0 1011.8 0.0
21/10:30am 30.4 29.3 9.8 28 11.8 SE 6 13 3 7 1014.3 1012.1 0.0
21/10:00am 28.8 27.3 8.5 28 11.3 SSW 6 11 3 6 1014.4 1012.2 0.0
21/09:30am 27.3 26.0 7.7 29 10.7 W 4 7 2 4 1014.4 1012.2 0.0
21/09:00am 25.5 23.7 7.1 31 9.8 SSE 6 9 3 5 1014.0 1011.8 0.0
21/08:30am 23.7 21.3 6.9 34 8.8 SE 9 13 5 7 1013.7 1011.5 0.0
21/08:00am 22.0 20.5 9.2 44 6.9 S 7 11 4 6 1013.5 1011.3 0.0
21/07:30am 21.4 20.3 10.6 50 6.0 S 7 9 4 5 1013.1 1010.9 0.0
21/07:00am 20.1 19.0 10.8 55 5.1 SSE 7 9 4 5 1012.7 1010.5 0.0
21/06:30am 19.6 18.3 11.1 58 4.7 S 9 11 5 6 1012.7 1010.5 0.0
21/06:00am 19.4 17.9 9.3 52 5.4 NNE 7 9 4 5 1012.5 1010.3 0.0
21/05:30am 19.8 19.0 9.7 52 5.5 SE 4 11 2 6 1012.2 1010.0 0.0
21/05:00am 19.9 18.5 9.5 51 5.6 SSE 7 11 4 6 1012.1 1009.9 0.0
21/04:30am 20.3 19.8 9.2 49 6.0 SSW 2 7 1 4 1012.2 1010.0 0.0
21/04:00am 20.8 20.6 9.1 47 6.3 CALM 0 0 0 0 1012.1 1009.9 0.0
21/03:30am 20.6 20.1 7.9 44 6.7 CALM 0 0 0 0 1012.1 1009.9 0.0
21/03:00am 21.1 20.5 7.3 41 7.2 CALM 0 2 0 1 1012.3 1010.1 0.0
21/02:30am 20.7 18.0 3.9 33 8.2 ENE 7 9 4 5 1012.6 1010.4 0.0
21/02:00am 21.5 19.1 4.1 32 8.6 NNE 6 9 3 5 1012.9 1010.8 0.0
21/01:30am 21.6 18.7 2.8 29 9.0 NNE 7 7 4 4 1012.9 1010.8 0.0
21/01:00am 21.7 18.7 4.3 32 8.6 NNE 9 13 5 7 1013.3 1011.1 0.0
21/12:30am 22.0 19.4 4.1 31 8.8 SE 7 9 4 5 1013.1 1010.9 0.0
21/12:00am 20.9 19.2 8.2 44 6.7 ESE 7 7 4 4 1013.1 1010.9 0.0
 
Date/Time
EST
Temp
°C
App
Temp
°C
Dew
Point
°C
Rel
Hum
%
Delta-T
°C
Wind Press
QNH
hPa
Press
MSL
hPa
Rain since
9am
mm
Dir  Spd
km/h
Gust
km/h
Spd
kts
Gust
kts
20/11:30pm 22.3 19.5 3.4 29 9.2 SE 7 9 4 5 1013.2 1011.0 0.0
20/11:00pm 23.4 20.6 3.4 27 9.8 SSE 7 11 4 6 1013.3 1011.1 0.0
20/10:30pm 24.4 20.9 3.7 26 10.3 SSE 11 13 6 7 1012.8 1010.7 0.0
20/10:00pm 24.8 21.4 4.0 26 10.4 SSE 11 15 6 8 1012.6 1010.4 0.0
20/09:30pm 25.2 22.5 5.4 28 10.2 SSW 9 11 5 6 1012.4 1010.2 0.0
20/09:00pm 25.7 23.1 6.3 29 10.2 S 9 11 5 6 1012.0 1009.8 0.0
20/08:30pm 26.0 23.0 6.1 28 10.4 S 11 13 6 7 1011.6 1009.4 0.0
20/08:00pm 26.7 23.6 5.6 26 11.0 SSE 11 13 6 7 1011.4 1009.2 0.0
20/07:30pm 27.8 24.5 4.8 23 11.9 S 11 15 6 8 1011.4 1009.2 0.0
20/07:00pm 29.6 25.4 3.6 19 13.4 SSE 15 20 8 11 1011.2 1009.0 0.0
20/06:30pm 30.6 26.4 3.6 18 13.9 SSE 15 20 8 11 1010.8 1008.6 0.0
20/06:00pm 31.5 26.5 3.5 17 14.5 SSE 19 26 10 14 1010.4 1008.2 0.0
20/05:30pm 32.0 26.7 3.1 16 14.9 SSE 20 26 11 14 1010.3 1008.1 0.0
20/05:00pm 31.9 27.3 3.8 17 14.7 SSE 17 24 9 13 1010.5 1008.3 0.0

Other Formats:

Comma delimited format used in spreadsheet applications
http://www.bom.gov.au/fwo/IDQ60801/IDQ60801.94336.axf

JavaScript Object Notation format (JSON) in row-major order
http://www.bom.gov.au/fwo/IDQ60801/IDQ60801.94336.json